KAHQ

Wahoo Municipal Airport

Wahoo, Nebraska, USA
METAR KAHQ 231055Z AUTO 11006KT 10SM CLR 17/16 A3002 RMK AO2 T01730159
Observed Flight Rules
May-23 @ 10:55 UTC (22 minutes ago) Visual Flight Rules
Wind Visibility Clouds
110° at 6 knots 10 miles
  • Clear skies
Temperatures Readings
Current 17°C / 63°F
Dewpoint 16°C / 61°F
Humidity 94%
Altimeter 30.02" Hg
Pressure 1017 hPa
Elevation 374
METAR KAHQ 231055Z AUTO 11006KT 10SM CLR 17/16 A3002 RMK AO2 T01730159
Observed Flight Rules
May-23 @ 10:55 UTC
(22 minutes ago)
VFR
Wind Visibility
110° at 6 knots 10 miles
Clouds
  • Clear skies
Temperature Dewpoint
17°C / 63°F 16°C / 61°F
Humidity Altimeter Pressure
94% 30.02" Hg 1017 hPa